Time;durP1;ratioP1;P1;durP2;ratioP2;P2;SDS_P1;SDS_P2;PMS_P1;PMS_P2;Temp;Humidity;BMP_temperature;BMP_pressure;BME280_temperature;BME280_humidity;BME280_pressure;Samples;Min_cycle;Max_cycle;Signal;HPM_P1;HPM_P2
2022/02/14 00:00:32;;;;;;;0.95;0.95;;;;;;;7.64;99.35;98085.75;4936760;29;20118;-79
2022/02/14 00:03:12;;;;;;;2.15;0.98;;;;;;;7.61;99.00;98094.53;4944966;28;20023;-79
2022/02/14 00:05:37;;;;;;;0.80;0.80;;;;;;;7.63;99.02;98111.34;4932976;29;20032;-80
2022/02/14 00:08:04;;;;;;;1.13;0.98;;;;;;;7.59;98.41;98115.75;4923606;28;20082;-80
2022/02/14 00:10:37;;;;;;;0.70;0.70;;;;;;;7.55;99.19;98126.44;4946860;28;20078;-79
2022/02/14 00:13:02;;;;;;;0.70;0.70;;;;;;;7.48;98.60;98110.53;4935207;28;20122;-80
2022/02/14 00:15:28;;;;;;;0.77;0.77;;;;;;;7.38;98.76;98099.84;4944758;28;20078;-82
2022/02/14 00:17:58;;;;;;;1.55;0.88;;;;;;;7.39;98.75;98117.78;4951234;28;20031;-78
2022/02/14 00:30:30;;;;;;;0.43;0.43;;;;;;;7.13;98.87;98115.53;4950361;28;20094;-76
2022/02/14 00:32:56;;;;;;;1.77;0.63;;;;;;;7.08;99.06;98112.91;4916655;29;20397;-77
2022/02/14 00:35:21;;;;;;;0.22;0.20;;;;;;;7.10;99.00;98107.19;4953600;28;20117;-76
2022/02/14 00:37:49;;;;;;;1.02;0.40;;;;;;;7.08;99.27;98123.78;4935942;28;20034;-77
2022/02/14 00:40:15;;;;;;;5.05;0.60;;;;;;;7.05;98.97;98118.94;4947492;28;20058;-76
2022/02/14 00:42:45;;;;;;;0.50;0.30;;;;;;;6.99;98.88;98120.97;4946337;29;20023;-75
2022/02/14 00:58:42;;;;;;;0.30;0.20;;;;;;;6.80;98.20;98133.75;4948054;28;20039;-77
2022/02/14 01:01:10;;;;;;;1.33;0.20;;;;;;;6.74;98.57;98138.47;4954725;28;20028;-75
2022/02/14 01:03:35;;;;;;;0.75;0.20;;;;;;;6.71;97.80;98146.41;4928780;29;20067;-75
2022/02/14 01:06:03;;;;;;;0.73;0.30;;;;;;;6.60;98.46;98140.31;4949590;28;20070;-76
2022/02/14 01:08:31;;;;;;;1.80;0.10;;;;;;;6.61;98.49;98158.25;4947602;28;20059;-77
2022/02/14 01:10:56;;;;;;;0.82;0.15;;;;;;;6.58;98.47;98156.91;4932453;28;20019;-77
2022/02/14 01:13:22;;;;;;;0.43;0.20;;;;;;;6.53;98.36;98150.78;4912939;29;20052;-76
2022/02/14 01:15:47;;;;;;;0.70;0.57;;;;;;;6.52;98.27;98160.03;4945002;28;20043;-76
2022/02/14 01:18:12;;;;;;;0.40;0.20;;;;;;;6.54;98.50;98163.25;4951556;28;20046;-76
2022/02/14 01:20:38;;;;;;;0.20;0.10;;;;;;;6.54;99.37;98158.63;4948093;28;20031;-76
2022/02/14 01:23:04;;;;;;;0.32;0.30;;;;;;;6.52;98.97;98160.03;4950739;28;20082;-76
2022/02/14 01:25:29;;;;;;;0.28;0.20;;;;;;;6.49;98.64;98161.41;4944724;28;20422;-76
2022/02/14 01:27:55;;;;;;;0.10;0.10;;;;;;;6.51;99.48;98169.25;4949782;28;20754;-76
2022/02/14 01:30:20;;;;;;;0.40;0.20;;;;;;;6.50;98.50;98162.22;4956649;28;20026;-76
2022/02/14 01:32:45;;;;;;;0.35;0.25;;;;;;;6.51;99.08;98177.41;4958872;28;20031;-77
2022/02/14 01:35:11;;;;;;;2.47;0.50;;;;;;;6.50;99.10;98173.06;4930764;29;20028;-76
2022/02/14 01:37:39;;;;;;;1.20;0.65;;;;;;;6.48;98.90;98157.06;4964431;28;20377;-76
2022/02/14 01:40:09;;;;;;;0.22;0.20;;;;;;;6.49;98.75;98160.63;4942284;28;20425;-77
2022/02/14 01:42:35;;;;;;;1.30;0.60;;;;;;;6.47;99.25;98169.06;4963876;28;20119;-78
2022/02/14 01:45:01;;;;;;;1.67;0.50;;;;;;;6.44;98.80;98170.44;4954705;28;20114;-76
2022/02/14 01:47:27;;;;;;;3.35;0.68;;;;;;;6.42;99.19;98167.19;4948605;28;20035;-77
2022/02/14 01:53:42;;;;;;;3.58;0.85;;;;;;;6.32;99.12;98189.06;4971363;28;20062;-77
2022/02/14 01:56:10;;;;;;;3.35;0.80;;;;;;;6.26;98.34;98191.06;4983503;28;20031;-77
2022/02/14 01:58:35;;;;;;;0.77;0.68;;;;;;;6.20;98.56;98175.13;4970765;28;20102;-78
2022/02/14 02:01:01;;;;;;;2.40;0.70;;;;;;;6.17;98.95;98192.00;4952984;28;20169;-76
2022/02/14 02:03:26;;;;;;;2.47;0.65;;;;;;;6.13;98.77;98180.91;4956304;28;20038;-78
2022/02/14 02:19:19;;;;;;;1.88;0.85;;;;;;;5.80;98.48;98197.03;4950090;28;20047;-75
2022/02/14 02:21:46;;;;;;;1.35;0.70;;;;;;;5.77;97.67;98206.53;4933593;29;20047;-74
2022/02/14 02:24:19;;;;;;;0.47;0.40;;;;;;;5.73;98.50;98208.22;4945947;28;20039;-75
2022/02/14 02:27:14;;;;;;;8.50;0.60;;;;;;;5.70;99.13;98214.22;4954234;28;20377;-73
2022/02/14 02:29:40;;;;;;;1.77;0.50;;;;;;;5.70;98.54;98210.69;4949769;28;20102;-73
2022/02/14 02:35:52;;;;;;;2.53;0.57;;;;;;;5.65;98.69;98227.00;4948467;28;20060;-75
2022/02/14 02:38:21;;;;;;;1.27;0.50;;;;;;;5.60;98.58;98233.31;4949834;28;20062;-75
2022/02/14 02:40:46;;;;;;;2.92;0.73;;;;;;;5.55;98.40;98230.66;4950934;28;20087;-76
2022/02/14 02:43:15;;;;;;;4.25;0.77;;;;;;;5.56;98.12;98240.38;4962956;28;20055;-75
2022/02/14 02:45:41;;;;;;;3.22;0.45;;;;;;;5.55;98.62;98241.50;4948971;28;20024;-75
2022/02/14 02:48:08;;;;;;;1.15;0.65;;;;;;;5.58;98.92;98246.34;4963176;28;20050;-75
2022/02/14 02:51:01;;;;;;;3.05;0.47;;;;;;;5.53;98.11;98236.34;4951573;28;20485;-81
2022/02/14 02:53:37;;;;;;;;;;;;;;;;;;;;;
2022/02/14 02:56:17;;;;;;;0.68;0.30;;;;;;;5.45;98.25;98225.31;4954902;28;20102;-78
2022/02/14 02:58:44;;;;;;;1.38;0.50;;;;;;;5.42;98.41;98227.50;4947568;28;20469;-76
2022/02/14 03:07:53;;;;;;;1.77;0.52;;;;;;;5.48;98.56;98251.88;4951798;28;20046;-76
2022/02/14 03:10:21;;;;;;;1.95;0.68;;;;;;;5.47;98.30;98250.25;4925677;28;20027;-77
2022/02/14 03:12:47;;;;;;;0.38;0.32;;;;;;;5.42;98.44;98260.03;4944835;28;20038;-77
2022/02/14 03:15:12;;;;;;;1.02;0.38;;;;;;;5.48;98.44;98265.44;4950392;28;20043;-77
2022/02/14 03:17:50;;;;;;;0.90;0.60;;;;;;;5.48;98.03;98265.44;4965619;28;20042;-77
2022/02/14 03:20:18;;;;;;;0.47;0.45;;;;;;;5.43;98.06;98258.13;4947523;28;20640;-76
2022/02/14 03:22:47;;;;;;;0.88;0.30;;;;;;;5.40;98.06;98262.22;4945061;29;20035;-75
2022/02/14 03:25:17;;;;;;;2.15;0.50;;;;;;;5.37;98.49;98261.97;4947411;28;20031;-74
2022/02/14 03:27:43;;;;;;;1.58;0.30;;;;;;;5.35;97.99;98264.97;4955761;28;20489;-74
2022/02/14 03:30:09;;;;;;;2.28;0.47;;;;;;;5.30;97.99;98262.31;4951770;28;20031;-76
2022/02/14 03:32:34;;;;;;;0.65;0.30;;;;;;;5.26;97.86;98272.13;4933584;28;20038;-75
2022/02/14 03:35:00;;;;;;;0.35;0.28;;;;;;;5.24;98.09;98282.41;4936527;29;20043;-75
2022/02/14 03:37:25;;;;;;;0.30;0.20;;;;;;;5.22;98.22;98273.75;4949139;28;20396;-73
2022/02/14 03:46:49;;;;;;;0.32;0.30;;;;;;;5.00;98.07;98283.13;4954335;28;20046;-75
2022/02/14 03:49:15;;;;;;;1.67;0.50;;;;;;;4.95;97.59;98291.31;4942746;28;20038;-76
2022/02/14 03:51:40;;;;;;;0.75;0.35;;;;;;;4.94;98.18;98297.00;4933432;29;20085;-76
2022/02/14 03:54:08;;;;;;;2.65;0.50;;;;;;;4.88;97.90;98296.22;4965365;28;20027;-74
2022/02/14 03:56:33;;;;;;;1.23;0.50;;;;;;;4.85;97.83;98304.91;4950839;28;20513;-79
2022/02/14 03:58:59;;;;;;;2.30;0.40;;;;;;;4.84;97.62;98316.84;4956249;28;20027;-75
2022/02/14 04:01:25;;;;;;;2.38;0.50;;;;;;;4.76;97.56;98293.88;4936983;29;20027;-76
2022/02/14 04:03:50;;;;;;;0.60;0.55;;;;;;;4.79;98.07;98322.25;4944904;28;20034;-77
2022/02/14 04:06:15;;;;;;;2.63;0.80;;;;;;;4.75;97.67;98321.22;4953542;28;20385;-76
2022/02/14 04:08:41;;;;;;;1.88;0.63;;;;;;;4.64;97.25;98304.19;4932792;29;20070;-76
2022/02/14 04:11:06;;;;;;;3.35;0.30;;;;;;;4.68;97.87;98324.22;4948584;28;20030;-75
2022/02/14 04:13:32;;;;;;;0.63;0.40;;;;;;;4.71;97.83;98332.59;4949019;28;20047;-77
2022/02/14 04:15:58;;;;;;;2.22;1.05;;;;;;;4.65;98.21;98344.53;4954312;29;20138;-75
2022/02/14 04:18:23;;;;;;;2.45;0.47;;;;;;;4.71;98.17;98343.41;4955527;28;20102;-76
2022/02/14 04:20:49;;;;;;;5.35;0.52;;;;;;;4.67;98.24;98345.09;4955769;28;20023;-75
2022/02/14 04:23:14;;;;;;;0.68;0.40;;;;;;;4.66;97.74;98346.16;4966982;28;20555;-75
2022/02/14 04:25:40;;;;;;;2.38;0.90;;;;;;;4.66;98.13;98339.94;4935411;29;20429;-75
2022/02/14 04:28:06;;;;;;;4.40;0.68;;;;;;;4.69;97.64;98351.03;4966336;28;20038;-75
2022/02/14 04:30:34;;;;;;;1.73;0.70;;;;;;;4.65;98.17;98339.13;4976338;28;20020;-74
2022/02/14 04:33:07;;;;;;;4.05;0.50;;;;;;;4.66;97.65;98343.47;4966735;28;20082;-76
2022/02/14 04:35:33;;;;;;;0.30;0.30;;;;;;;4.67;98.24;98358.63;4965303;28;20027;-74
2022/02/14 04:38:01;;;;;;;2.65;0.50;;;;;;;4.63;97.80;98346.72;4954124;28;20380;-75
2022/02/14 04:40:39;;;;;;;0.57;0.50;;;;;;;4.63;97.39;98351.31;4936812;28;20147;-74
2022/02/14 04:43:13;;;;;;;0.75;0.52;;;;;;;4.62;97.30;98366.75;4951365;28;20606;-74
2022/02/14 04:45:38;;;;;;;0.38;0.38;;;;;;;4.60;97.78;98377.06;4942695;28;20034;-77
2022/02/14 04:48:06;;;;;;;0.55;0.40;;;;;;;4.58;98.08;98379.22;4931664;29;20040;-76
2022/02/14 04:50:32;;;;;;;2.50;0.82;;;;;;;4.57;97.33;98368.66;4948089;28;20078;-76
2022/02/14 04:52:57;;;;;;;0.45;0.45;;;;;;;4.59;97.33;98383.56;4946850;28;20915;-75
2022/02/14 04:55:23;;;;;;;0.30;0.20;;;;;;;4.64;98.06;98388.94;4953224;28;20070;-73
2022/02/14 04:57:49;;;;;;;2.58;0.63;;;;;;;4.65;98.35;98377.03;4965175;28;20034;-75
2022/02/14 05:00:18;;;;;;;3.13;0.40;;;;;;;4.76;99.05;98387.81;4962944;28;20434;-73
2022/02/14 05:02:44;;;;;;;1.45;0.30;;;;;;;4.72;98.43;98391.06;4950903;28;20135;-74
2022/02/14 05:05:10;;;;;;;1.10;0.60;;;;;;;4.70;98.21;98392.44;4927752;28;20043;-74
2022/02/14 05:07:35;;;;;;;0.20;0.20;;;;;;;4.66;97.92;98394.91;4934391;28;20023;-74
2022/02/14 05:16:26;;;;;;;0.30;0.13;;;;;;;4.55;96.83;98417.66;4941492;28;20050;-75
2022/02/14 05:18:52;;;;;;;1.95;0.30;;;;;;;4.49;97.06;98422.28;4946541;28;20390;-75
2022/02/14 05:21:17;;;;;;;1.02;0.22;;;;;;;4.49;97.21;98424.19;4943158;29;20381;-75
2022/02/14 05:23:43;;;;;;;2.97;0.40;;;;;;;4.49;97.88;98426.91;4923919;28;20065;-75
2022/02/14 05:26:09;;;;;;;0.77;0.30;;;;;;;4.45;97.66;98425.81;4951643;28;20109;-75
2022/02/14 05:28:35;;;;;;;5.03;0.50;;;;;;;4.44;96.84;98424.19;4948668;28;20044;-75
2022/02/14 05:31:00;;;;;;;1.52;0.40;;;;;;;4.40;96.97;98431.25;4934770;29;20405;-75
2022/02/14 05:33:26;;;;;;;4.30;0.40;;;;;;;4.32;96.50;98436.16;4941397;29;20038;-76
2022/02/14 05:35:51;;;;;;;0.57;0.30;;;;;;;4.32;96.73;98438.03;4939177;29;20027;-76
2022/02/14 05:38:17;;;;;;;0.77;0.40;;;;;;;4.30;97.16;98441.00;4939745;29;20092;-75
2022/02/14 05:40:50;;;;;;;0.70;0.25;;;;;;;4.29;96.37;98444.81;4925720;29;20046;-75
2022/02/14 05:43:17;;;;;;;1.85;0.40;;;;;;;4.31;97.45;98448.03;4942859;28;20091;-76
2022/02/14 05:45:43;;;;;;;1.65;0.28;;;;;;;4.28;96.57;98453.16;4943815;28;20038;-74
2022/02/14 05:48:09;;;;;;;1.05;0.30;;;;;;;4.32;97.01;98456.97;4952008;28;20027;-75
2022/02/14 05:50:34;;;;;;;1.85;0.63;;;;;;;4.26;97.29;98456.16;4960327;29;20008;-76
2022/02/14 05:53:00;;;;;;;0.38;0.20;;;;;;;4.28;97.06;98462.13;4954674;28;20133;-74
2022/02/14 05:55:25;;;;;;;0.38;0.38;;;;;;;4.31;97.85;98469.69;4930532;29;20038;-75
2022/02/14 05:57:52;;;;;;;1.85;0.30;;;;;;;4.32;97.36;98471.31;4940231;28;20556;-74
2022/02/14 06:00:18;;;;;;;1.85;0.17;;;;;;;4.38;96.96;98480.25;4947104;28;20086;-75
2022/02/14 06:02:44;;;;;;;1.15;0.32;;;;;;;4.40;97.01;98482.69;4951794;28;20498;-75
2022/02/14 06:05:09;;;;;;;4.32;0.57;;;;;;;4.38;97.46;98482.97;4932293;29;20043;-76
2022/02/14 06:07:37;;;;;;;2.83;0.68;;;;;;;4.33;96.90;98489.16;4934220;29;20039;-75
2022/02/14 06:10:03;;;;;;;0.93;0.57;;;;;;;4.35;96.64;98495.13;4933801;28;20109;-75
2022/02/14 06:12:28;;;;;;;4.78;0.60;;;;;;;4.33;97.43;98488.34;4924675;29;20598;-76
2022/02/14 06:14:58;;;;;;;2.53;0.65;;;;;;;4.31;97.04;98488.63;4961053;28;20058;-76
2022/02/14 06:17:23;;;;;;;2.40;0.43;;;;;;;4.27;97.00;98495.66;4954388;28;20019;-75
2022/02/14 06:19:49;;;;;;;2.85;0.90;;;;;;;4.24;96.82;98506.22;4954481;28;20107;-75
2022/02/14 06:22:14;;;;;;;2.58;0.90;;;;;;;4.23;96.45;98513.53;4941947;29;20077;-75
2022/02/14 06:24:40;;;;;;;2.55;0.60;;;;;;;4.19;96.77;98525.97;4969195;28;20023;-75
2022/02/14 06:27:05;;;;;;;8.73;0.63;;;;;;;4.16;96.92;98521.09;4954657;28;20038;-76
2022/02/14 06:29:30;;;;;;;2.85;0.93;;;;;;;4.18;96.80;98524.34;4962672;28;20036;-74
2022/02/14 06:31:56;;;;;;;2.65;0.52;;;;;;;4.15;97.17;98527.59;4952140;29;20037;-75
2022/02/14 06:34:22;;;;;;;3.10;0.70;;;;;;;4.12;96.10;98531.66;4940800;28;20031;-75
2022/02/14 06:36:48;;;;;;;4.15;1.48;;;;;;;4.08;97.12;98533.28;4960347;28;20122;-74
2022/02/14 06:39:16;;;;;;;5.20;2.35;;;;;;;4.08;96.54;98537.88;4952293;28;20135;-76
2022/02/14 06:41:41;;;;;;;3.20;0.47;;;;;;;4.05;96.87;98535.72;4951156;28;20038;-74
2022/02/14 06:44:10;;;;;;;1.02;0.50;;;;;;;4.01;96.89;98536.22;4950713;28;20039;-73
2022/02/14 06:46:35;;;;;;;7.90;0.90;;;;;;;3.99;96.48;98551.94;4944370;28;20036;-75
2022/02/14 06:49:06;;;;;;;2.17;0.50;;;;;;;3.94;96.28;98538.41;4933856;29;20046;-75
2022/02/14 06:51:35;;;;;;;2.70;0.63;;;;;;;3.99;97.21;98551.94;4952454;28;20027;-74
2022/02/14 06:54:01;;;;;;;8.23;0.50;;;;;;;4.01;96.85;98552.47;4948553;28;20107;-75
2022/02/14 06:56:26;;;;;;;6.82;0.52;;;;;;;4.01;97.18;98559.78;4949023;28;20113;-74
2022/02/14 06:58:52;;;;;;;1.95;0.98;;;;;;;4.00;96.54;98556.25;4947460;28;20396;-75
2022/02/14 07:01:17;;;;;;;6.93;0.50;;;;;;;3.99;96.90;98560.03;4936692;28;20031;-74
2022/02/14 07:03:42;;;;;;;2.05;0.63;;;;;;;3.99;97.17;98560.03;4958935;28;20046;-74
2022/02/14 07:06:08;;;;;;;10.40;0.57;;;;;;;3.97;96.89;98566.78;4965623;28;20215;-74
2022/02/14 07:08:34;;;;;;;3.60;0.40;;;;;;;3.96;97.03;98571.41;4950968;28;20067;-72
2022/02/14 07:11:09;;;;;;;2.63;0.47;;;;;;;3.96;96.88;98582.22;4950276;28;20031;-73
2022/02/14 07:13:37;;;;;;;4.38;0.70;;;;;;;3.97;97.44;98588.44;4943757;28;20047;-74
2022/02/14 07:16:02;;;;;;;9.23;1.05;;;;;;;3.93;97.12;98582.75;4950218;28;20453;-74
2022/02/14 07:18:30;;;;;;;3.90;0.60;;;;;;;3.97;96.92;98586.56;4948683;28;20038;-74
2022/02/14 07:20:56;;;;;;;1.48;0.50;;;;;;;3.96;96.97;98598.44;4946285;28;20034;-78
2022/02/14 07:23:22;;;;;;;2.72;0.82;;;;;;;3.94;96.58;98606.03;4937694;29;20061;-76
2022/02/14 07:25:57;;;;;;;4.40;0.60;;;;;;;3.94;96.43;98605.19;4932598;28;20474;-75
2022/02/14 07:28:32;;;;;;;3.60;0.85;;;;;;;3.90;96.55;98613.03;4942759;28;20028;-77
2022/02/14 07:31:07;;;;;;;;;;;;;;;;;;;;;
2022/02/14 07:33:34;;;;;;;3.45;0.93;;;;;;;3.89;96.23;98621.41;4950253;28;20024;-77
2022/02/14 07:36:07;;;;;;;5.30;0.60;;;;;;;3.81;96.28;98610.03;4952376;29;20134;-76
2022/02/14 07:38:32;;;;;;;3.53;0.47;;;;;;;3.87;97.25;98621.69;4946635;28;20019;-76
2022/02/14 07:41:01;;;;;;;9.23;0.82;;;;;;;3.78;96.45;98612.44;4942815;28;20488;-76
2022/02/14 07:43:27;;;;;;;8.00;0.85;;;;;;;3.86;96.11;98630.88;4957627;28;20032;-75
2022/02/14 07:45:52;;;;;;;6.75;0.73;;;;;;;3.91;96.72;98632.78;4935962;28;20438;-77
2022/02/14 07:48:41;;;;;;;3.28;0.68;;;;;;;3.86;96.90;98625.47;4930495;29;20031;-77
2022/02/14 07:51:07;;;;;;;1.85;0.32;;;;;;;3.87;96.63;98624.41;4946196;28;20054;-77
2022/02/14 07:53:39;;;;;;;0.60;0.50;;;;;;;3.87;96.87;98627.09;4966927;28;20058;-78
2022/02/14 07:56:30;;;;;;;1.15;0.63;;;;;;;3.94;96.99;98638.47;4941993;28;20086;-78
2022/02/14 07:59:06;;;;;;;5.28;1.25;;;;;;;4.06;97.23;98650.94;4937588;28;20023;-79
2022/02/14 08:01:31;;;;;;;7.43;0.88;;;;;;;4.00;97.33;98642.81;4948909;28;20027;-79
2022/02/14 08:04:06;;;;;;;12.30;2.90;;;;;;;3.90;97.44;98631.97;4948296;28;20031;-78
2022/02/14 08:06:39;;;;;;;5.50;1.27;;;;;;;3.94;97.52;98643.06;4965774;28;20097;-76
2022/02/14 08:09:11;;;;;;;9.23;1.70;;;;;;;3.95;97.01;98640.09;4943321;28;20054;-78
2022/02/14 08:11:40;;;;;;;1.83;0.77;;;;;;;4.11;97.14;98668.00;4964399;28;20471;-81
2022/02/14 08:14:05;;;;;;;4.22;0.85;;;;;;;4.08;97.46;98659.59;4962919;28;20099;-78
2022/02/14 08:16:33;;;;;;;4.25;0.75;;;;;;;4.13;97.07;98667.72;4952008;28;20051;-77
2022/02/14 08:19:01;;;;;;;1.95;0.82;;;;;;;4.19;97.30;98677.47;4950595;28;20066;-75
2022/02/14 08:21:31;;;;;;;3.33;0.80;;;;;;;4.27;97.35;98685.09;4943787;28;20027;-76
2022/02/14 08:24:00;;;;;;;1.30;0.65;;;;;;;4.25;98.21;98676.44;4951135;28;20027;-74
2022/02/14 08:26:32;;;;;;;7.82;0.75;;;;;;;4.33;97.31;98686.72;4952858;28;20500;-73
2022/02/14 08:28:57;;;;;;;2.28;0.68;;;;;;;4.33;98.13;98673.19;4944256;28;20035;-74
2022/02/14 08:31:25;;;;;;;7.28;1.30;;;;;;;4.45;98.25;98682.94;4950479;28;20031;-76
2022/02/14 08:33:51;;;;;;;5.38;0.98;;;;;;;4.47;98.80;98687.03;4945100;28;20030;-75
2022/02/14 08:36:16;;;;;;;3.83;0.60;;;;;;;4.56;97.99;98687.31;4917931;28;20032;-75
2022/02/14 08:38:45;;;;;;;6.80;1.17;;;;;;;4.62;99.14;98686.22;4951482;28;20035;-75
2022/02/14 08:41:10;;;;;;;6.30;1.38;;;;;;;5.02;99.93;98684.63;4948055;28;20034;-74
2022/02/14 08:43:36;;;;;;;4.50;1.50;;;;;;;5.90;100.00;98703.41;4940631;28;20035;-75
2022/02/14 08:46:07;;;;;;;6.43;1.15;;;;;;;6.66;100.00;98693.25;4940608;28;20035;-75
2022/02/14 08:48:33;;;;;;;5.95;1.20;;;;;;;7.43;100.00;98697.22;4962324;28;20023;-74
2022/02/14 08:50:58;;;;;;;0.82;0.65;;;;;;;8.26;100.00;98705.25;4940815;28;20050;-76
2022/02/14 08:53:25;;;;;;;10.82;1.63;;;;;;;9.08;98.72;98704.03;4945153;29;20035;-74
2022/02/14 08:55:51;;;;;;;4.53;1.75;;;;;;;9.87;95.81;98716.84;4928124;28;20023;-78
2022/02/14 08:58:16;;;;;;;7.70;1.23;;;;;;;10.35;92.29;98710.13;4944800;28;20029;-79
2022/02/14 09:00:52;;;;;;;4.20;1.27;;;;;;;10.39;88.48;98711.13;4957912;28;20114;-77
2022/02/14 09:03:56;;;;;;;7.60;0.98;;;;;;;9.64;88.66;98715.06;4943732;28;20062;-78
2022/02/14 09:06:22;;;;;;;9.13;1.85;;;;;;;9.08;90.38;98693.13;4959971;28;20023;-77
2022/02/14 09:08:48;;;;;;;5.30;1.58;;;;;;;9.08;91.95;98710.31;4948730;29;20039;-75
2022/02/14 09:11:24;;;;;;;4.22;1.13;;;;;;;9.03;92.91;98704.94;4947131;28;20043;-77
2022/02/14 09:13:57;;;;;;;7.53;1.33;;;;;;;9.01;92.88;98726.25;4959128;28;20089;-83
2022/02/14 09:16:23;;;;;;;9.65;1.55;;;;;;;9.02;93.67;98710.69;4957821;28;20039;-83
2022/02/14 09:18:54;;;;;;;10.35;1.25;;;;;;;9.12;93.84;98707.81;4968172;28;20038;-84
2022/02/14 09:21:32;;;;;;;;;;;;;;;;;;;;;
2022/02/14 09:24:14;;;;;;;4.35;1.40;;;;;;;9.68;93.91;98732.47;4947359;29;20035;-76
2022/02/14 09:26:41;;;;;;;14.38;2.03;;;;;;;9.88;93.73;98732.09;4942794;29;20058;-78
2022/02/14 09:29:11;;;;;;;7.35;1.75;;;;;;;10.06;93.40;98729.56;4949599;29;20041;-77
2022/02/14 09:31:37;;;;;;;6.00;0.80;;;;;;;9.88;91.46;98718.44;4927564;29;20032;-80
2022/02/14 09:34:50;;;;;;;3.90;0.80;;;;;;;9.84;94.10;98749.38;4945488;29;20394;-83
2022/02/14 09:37:24;;;;;;;5.00;1.05;;;;;;;9.87;93.41;98735.94;4965299;28;20035;-83
2022/02/14 09:39:57;;;;;;;2.27;0.77;;;;;;;9.66;92.37;98756.53;4948736;28;20039;-81
2022/02/14 09:42:25;;;;;;;7.97;1.25;;;;;;;9.13;92.94;98744.06;4948150;28;20117;-81
2022/02/14 09:44:51;;;;;;;12.75;2.60;;;;;;;8.82;94.17;98745.34;4941625;28;20032;-81
2022/02/14 09:47:17;;;;;;;1.58;0.70;;;;;;;8.33;93.80;98732.94;4962297;28;20387;-81
2022/02/14 09:49:42;;;;;;;2.38;0.75;;;;;;;8.14;95.02;98744.59;4931618;28;20035;-80
2022/02/14 09:52:11;;;;;;;6.55;0.63;;;;;;;7.79;95.03;98746.63;4958975;28;20497;-80
2022/02/14 09:54:37;;;;;;;9.63;1.27;;;;;;;7.71;96.57;98749.97;4922542;29;20031;-80
2022/02/14 09:57:05;;;;;;;5.63;1.20;;;;;;;8.16;98.99;98750.56;4943869;29;20039;-83
2022/02/14 09:59:31;;;;;;;8.00;1.10;;;;;;;8.64;98.87;98746.16;4930363;28;20027;-79
2022/02/14 10:01:57;;;;;;;8.35;1.60;;;;;;;9.13;98.69;98744.88;4949230;28;20529;-80
2022/02/14 10:04:22;;;;;;;4.55;0.82;;;;;;;9.86;97.71;98761.63;4942896;28;20135;-79
2022/02/14 10:06:51;;;;;;;3.25;0.75;;;;;;;10.25;94.39;98768.50;4962644;28;20090;-80
2022/02/14 10:09:27;;;;;;;1.42;0.43;;;;;;;9.81;90.34;98786.28;4964206;28;20118;-82
2022/02/14 10:12:21;;;;;;;2.85;0.70;;;;;;;9.48;92.03;98761.75;4967846;28;20047;-85
2022/02/14 10:15:04;;;;;;;7.82;0.77;;;;;;;9.77;93.21;98782.56;4951751;28;20039;-83
2022/02/14 10:17:49;;;;;;;1.42;0.40;;;;;;;9.52;91.92;98784.63;4918059;29;20118;-84
2022/02/14 10:20:39;;;;;;;2.17;0.45;;;;;;;9.32;92.75;98776.78;4930663;29;20023;-85
2022/02/14 10:23:07;;;;;;;1.63;0.28;;;;;;;9.19;91.94;98798.22;4949462;29;20032;-84
2022/02/14 10:25:42;;;;;;;14.50;0.55;;;;;;;9.00;92.39;98811.06;4944303;29;20020;-80
2022/02/14 10:28:41;;;;;;;;;;;;;;;;;;;;;
2022/02/14 10:31:08;;;;;;;5.47;0.30;;;;;;;9.44;94.30;98805.19;4965867;29;20117;-80
2022/02/14 10:33:56;;;;;;;0.50;0.17;;;;;;;9.45;92.56;98822.38;4949943;29;20109;-79
2022/02/14 10:36:36;;;;;;;8.60;0.45;;;;;;;9.38;92.80;98819.22;4957358;29;20015;-80
2022/02/14 10:39:28;;;;;;;3.17;0.47;;;;;;;9.37;92.86;98828.50;4949310;29;20034;-79
2022/02/14 10:42:03;;;;;;;3.38;0.60;;;;;;;9.31;92.97;98813.34;4959874;29;20031;-79
2022/02/14 10:47:22;;;;;;;2.40;0.50;;;;;;;9.79;91.78;98821.25;4948811;29;20824;-78
2022/02/14 10:50:18;;;;;;;2.03;0.38;;;;;;;10.69;93.38;98839.25;4946213;29;20367;-77
2022/02/14 10:52:57;;;;;;;1.87;0.30;;;;;;;11.52;90.51;98839.03;4926370;29;20075;-76
2022/02/14 10:55:33;;;;;;;0.32;0.32;;;;;;;12.32;87.63;98828.22;4943784;28;20332;-77
2022/02/14 10:58:39;;;;;;;;;;;;;;;;;;;;;
2022/02/14 11:01:08;;;;;;;2.38;0.93;;;;;;;13.24;83.15;98860.41;4947758;29;20039;-78
2022/02/14 11:03:47;;;;;;;1.23;0.40;;;;;;;13.37;83.41;98831.19;4938216;29;20046;-79
2022/02/14 11:06:24;;;;;;;1.63;0.57;;;;;;;13.76;81.91;98854.09;4937323;29;20482;-77
2022/02/14 11:11:42;;;;;;;1.88;0.60;;;;;;;15.03;80.37;98865.59;4943712;29;20030;-80
2022/02/14 11:14:11;;;;;;;5.40;1.08;;;;;;;15.44;77.97;98891.53;4928101;29;20061;-74
2022/02/14 11:16:53;;;;;;;;;;;;;;;;;;;;;
2022/02/14 11:19:20;;;;;;;4.00;0.40;;;;;;;14.72;76.60;98877.75;4948042;29;20090;-78
2022/02/14 11:21:46;;;;;;;2.42;0.43;;;;;;;14.94;77.49;98884.13;4926055;29;20028;-79
2022/02/14 11:24:58;;;;;;;0.80;0.65;;;;;;;15.17;76.92;98877.16;4968430;28;20486;-80
2022/02/14 11:27:30;;;;;;;4.18;0.60;;;;;;;14.44;72.51;98891.91;4876766;29;20062;-81
2022/02/14 11:30:00;;;;;;;0.35;0.22;;;;;;;13.48;74.52;98861.06;4947074;29;20063;-80
2022/02/14 11:33:24;;;;;;;;;;;;;;;;;;;;;
2022/02/14 11:36:05;;;;;;;3.75;0.75;;;;;;;13.99;76.46;98856.66;4964552;28;20059;-77
2022/02/14 11:38:43;;;;;;;1.75;0.63;;;;;;;15.08;76.84;98875.59;4953305;28;20031;-77
2022/02/14 11:41:35;;;;;;;4.20;0.77;;;;;;;14.99;71.23;98878.41;4949491;28;20027;-77
2022/02/14 11:44:33;;;;;;;0.85;0.50;;;;;;;13.93;73.79;98885.41;4945670;29;20036;-78
2022/02/14 11:47:09;;;;;;;;;;;;;;;;;;;;;
2022/02/14 11:49:49;;;;;;;1.95;0.30;;;;;;;11.67;76.43;98882.47;4948058;29;20466;-77
2022/02/14 11:52:42;;;;;;;;;;;;;;;;;;;;;
2022/02/14 11:55:29;;;;;;;3.13;0.47;;;;;;;9.93;78.61;98914.94;4951936;29;20031;-79
2022/02/14 11:57:57;;;;;;;1.17;0.60;;;;;;;9.54;81.71;98897.00;4952954;29;20363;-78
2022/02/14 12:00:24;;;;;;;0.82;0.35;;;;;;;9.49;82.37;98905.28;4945342;29;20478;-77
2022/02/14 12:03:35;;;;;;;2.13;0.50;;;;;;;9.66;83.55;98893.00;4969542;28;20031;-76
2022/02/14 12:06:04;;;;;;;6.45;0.63;;;;;;;9.82;82.65;98907.22;4943927;29;20385;-77
2022/02/14 12:09:10;;;;;;;2.65;0.65;;;;;;;9.59;84.33;98888.75;4948885;29;20031;-77
2022/02/14 12:11:54;;;;;;;;;;;;;;;9.78;85.41;98905.09;4884644;29;20040;-77
2022/02/14 12:14:31;;;;;;;7.00;0.40;;;;;;;9.64;85.79;98889.75;4947551;28;19926;-81
2022/02/14 12:22:50;;;;;;;1.23;0.47;;;;;;;9.98;83.82;98940.56;4951000;28;20093;-81
2022/02/14 12:25:23;;;;;;;1.48;0.55;;;;;;;10.06;82.50;98927.03;4924812;28;20074;-82
2022/02/14 12:27:49;;;;;;;6.30;0.38;;;;;;;10.01;83.69;98907.19;4942071;28;20070;-78
2022/02/14 12:30:34;;;;;;;;;;;;;;;;;;;;;
2022/02/14 12:33:08;;;;;;;3.00;0.63;;;;;;;9.64;81.69;98900.66;4961810;28;20422;-78
2022/02/14 12:36:09;;;;;;;;;;;;;;;;;;;;;
2022/02/14 12:41:35;;;;;;;1.08;0.52;;;;;;;9.02;84.74;98920.63;4948948;28;20181;-76
2022/02/14 12:44:55;;;;;;;3.42;0.40;;;;;;;9.17;85.87;98938.72;4952556;28;20039;-76
2022/02/14 12:47:35;;;;;;;;;;;;;;;;;;;;;
2022/02/14 12:50:02;;;;;;;1.65;0.30;;;;;;;9.14;83.72;98942.88;4931200;28;20031;-77
2022/02/14 12:52:50;;;;;;;2.83;0.17;;;;;;;8.91;81.67;98918.03;4952838;28;20050;-76
2022/02/14 12:55:16;;;;;;;0.52;0.20;;;;;;;8.89;83.03;98944.81;4934891;29;20034;-76
2022/02/14 12:57:58;;;;;;;1.08;0.22;;;;;;;8.89;80.48;98941.25;4944435;29;20394;-76
2022/02/14 13:00:39;;;;;;;2.42;0.30;;;;;;;8.60;81.09;98914.88;4961146;28;20035;-76
2022/02/14 13:03:15;;;;;;;0.63;0.20;;;;;;;8.53;81.88;98904.31;4949361;28;20429;-77
2022/02/14 13:05:49;;;;;;;4.53;0.98;;;;;;;8.59;81.53;98915.97;4947057;29;20050;-76
2022/02/14 13:08:44;;;;;;;7.93;0.70;;;;;;;8.70;81.39;98943.91;4955735;28;20039;-75
2022/02/14 13:11:11;;;;;;;1.77;0.47;;;;;;;8.61;82.21;98923.88;4932079;28;20375;-76
2022/02/14 13:13:48;;;;;;;2.33;0.35;;;;;;;8.77;83.54;98919.84;4946182;28;20568;-76
2022/02/14 13:16:15;;;;;;;1.52;0.30;;;;;;;8.89;83.23;98931.16;4943349;28;20374;-73
2022/02/14 13:18:55;;;;;;;3.00;0.30;;;;;;;8.99;82.68;98934.88;4942082;28;20027;-76
2022/02/14 13:21:28;;;;;;;3.47;0.55;;;;;;;9.38;82.86;98952.91;4943068;28;20038;-77
2022/02/14 13:23:59;;;;;;;2.25;0.40;;;;;;;9.81;79.86;98965.66;4951396;28;20103;-74
2022/02/14 13:26:30;;;;;;;7.90;0.17;;;;;;;9.84;76.54;98941.31;4948327;28;20027;-75
2022/02/14 13:28:56;;;;;;;5.93;0.75;;;;;;;9.93;76.53;98955.09;4950555;28;20046;-74
2022/02/14 13:31:32;;;;;;;0.40;0.10;;;;;;;10.04;77.02;98963.94;4956415;28;20058;-75
2022/02/14 13:34:01;;;;;;;0.65;0.35;;;;;;;10.07;76.46;98949.69;4953250;28;20034;-73